sensor_id;sensor_type;location;lat;lon;timestamp;temperature;humidity
20885;DHT22;10602;48.000;9.654;2022-11-23T00:01:38;3.60;99.90
20885;DHT22;10602;48.000;9.654;2022-11-23T00:04:07;3.60;99.90
20885;DHT22;10602;48.000;9.654;2022-11-23T00:06:35;3.60;99.90
20885;DHT22;10602;48.000;9.654;2022-11-23T00:09:03;3.60;99.90
20885;DHT22;10602;48.000;9.654;2022-11-23T00:11:35;3.60;99.90
20885;DHT22;10602;48.000;9.654;2022-11-23T00:14:02;3.60;99.90
20885;DHT22;10602;48.000;9.654;2022-11-23T00:16:30;3.50;99.90
20885;DHT22;10602;48.000;9.654;2022-11-23T00:18:59;3.50;99.90
20885;DHT22;10602;48.000;9.654;2022-11-23T00:21:30;3.40;99.90
20885;DHT22;10602;48.000;9.654;2022-11-23T00:23:58;3.40;99.90
20885;DHT22;10602;48.000;9.654;2022-11-23T00:26:26;3.40;99.90
20885;DHT22;10602;48.000;9.654;2022-11-23T00:28:54;3.40;99.90
20885;DHT22;10602;48.000;9.654;2022-11-23T00:31:22;3.40;99.90
20885;DHT22;10602;48.000;9.654;2022-11-23T00:33:52;3.50;99.90
20885;DHT22;10602;48.000;9.654;2022-11-23T00:36:20;3.50;99.90
20885;DHT22;10602;48.000;9.654;2022-11-23T00:38:49;3.50;99.90
20885;DHT22;10602;48.000;9.654;2022-11-23T00:41:19;3.50;99.90
20885;DHT22;10602;48.000;9.654;2022-11-23T00:43:47;3.60;99.90
20885;DHT22;10602;48.000;9.654;2022-11-23T00:46:23;3.60;99.90
20885;DHT22;10602;48.000;9.654;2022-11-23T00:48:52;3.60;99.90
20885;DHT22;10602;48.000;9.654;2022-11-23T00:51:22;3.60;99.90
20885;DHT22;10602;48.000;9.654;2022-11-23T00:53:51;3.60;99.90
20885;DHT22;10602;48.000;9.654;2022-11-23T00:56:19;3.60;99.90
20885;DHT22;10602;48.000;9.654;2022-11-23T00:58:50;3.60;99.90
20885;DHT22;10602;48.000;9.654;2022-11-23T01:01:20;3.60;99.90
20885;DHT22;10602;48.000;9.654;2022-11-23T01:03:50;3.60;99.90
20885;DHT22;10602;48.000;9.654;2022-11-23T01:06:22;3.60;99.90
20885;DHT22;10602;48.000;9.654;2022-11-23T01:08:55;3.70;99.90
20885;DHT22;10602;48.000;9.654;2022-11-23T01:11:25;3.60;99.90
20885;DHT22;10602;48.000;9.654;2022-11-23T01:13:53;3.60;99.90
20885;DHT22;10602;48.000;9.654;2022-11-23T01:16:23;3.70;99.90
20885;DHT22;10602;48.000;9.654;2022-11-23T01:18:58;3.60;99.90
20885;DHT22;10602;48.000;9.654;2022-11-23T01:21:22;3.60;99.90
20885;DHT22;10602;48.000;9.654;2022-11-23T01:23:50;3.60;99.90
20885;DHT22;10602;48.000;9.654;2022-11-23T01:26:19;3.70;99.90
20885;DHT22;10602;48.000;9.654;2022-11-23T01:28:46;3.70;99.90
20885;DHT22;10602;48.000;9.654;2022-11-23T01:31:16;3.70;99.90
20885;DHT22;10602;48.000;9.654;2022-11-23T01:33:45;3.70;99.90
20885;DHT22;10602;48.000;9.654;2022-11-23T01:36:18;3.70;99.90
20885;DHT22;10602;48.000;9.654;2022-11-23T01:38:46;3.70;99.90
20885;DHT22;10602;48.000;9.654;2022-11-23T01:41:17;3.70;99.90
20885;DHT22;10602;48.000;9.654;2022-11-23T01:43:45;3.70;99.90
20885;DHT22;10602;48.000;9.654;2022-11-23T01:46:12;3.70;99.90
20885;DHT22;10602;48.000;9.654;2022-11-23T01:48:57;3.70;99.90
20885;DHT22;10602;48.000;9.654;2022-11-23T01:51:38;3.70;99.90
20885;DHT22;10602;48.000;9.654;2022-11-23T01:56:43;3.70;99.90
20885;DHT22;10602;48.000;9.654;2022-11-23T01:59:14;3.80;99.90
20885;DHT22;10602;48.000;9.654;2022-11-23T02:01:42;3.80;99.90
20885;DHT22;10602;48.000;9.654;2022-11-23T02:04:15;3.70;99.90
20885;DHT22;10602;48.000;9.654;2022-11-23T02:06:45;3.80;99.90
20885;DHT22;10602;48.000;9.654;2022-11-23T02:09:14;3.80;99.90
20885;DHT22;10602;48.000;9.654;2022-11-23T02:11:42;3.80;99.90
20885;DHT22;10602;48.000;9.654;2022-11-23T02:14:10;3.80;99.90
20885;DHT22;10602;48.000;9.654;2022-11-23T02:16:38;3.80;99.90
20885;DHT22;10602;48.000;9.654;2022-11-23T02:19:19;3.80;99.90
20885;DHT22;10602;48.000;9.654;2022-11-23T02:21:42;3.80;99.90
20885;DHT22;10602;48.000;9.654;2022-11-23T02:24:16;3.80;99.90
20885;DHT22;10602;48.000;9.654;2022-11-23T02:26:43;3.80;99.90
20885;DHT22;10602;48.000;9.654;2022-11-23T02:29:14;3.80;99.90
20885;DHT22;10602;48.000;9.654;2022-11-23T02:31:41;3.80;99.90
20885;DHT22;10602;48.000;9.654;2022-11-23T02:34:09;3.70;99.90
20885;DHT22;10602;48.000;9.654;2022-11-23T02:39:48;3.80;99.90
20885;DHT22;10602;48.000;9.654;2022-11-23T02:41:51;3.80;99.90
20885;DHT22;10602;48.000;9.654;2022-11-23T02:44:32;3.80;99.90
20885;DHT22;10602;48.000;9.654;2022-11-23T02:46:59;3.80;99.90
20885;DHT22;10602;48.000;9.654;2022-11-23T02:49:26;3.80;99.90
20885;DHT22;10602;48.000;9.654;2022-11-23T02:51:54;3.80;99.90
20885;DHT22;10602;48.000;9.654;2022-11-23T02:54:21;3.80;99.90
20885;DHT22;10602;48.000;9.654;2022-11-23T02:56:49;3.70;99.90
20885;DHT22;10602;48.000;9.654;2022-11-23T02:59:16;3.70;99.90
20885;DHT22;10602;48.000;9.654;2022-11-23T03:01:44;3.60;99.90
20885;DHT22;10602;48.000;9.654;2022-11-23T03:04:11;3.60;99.90
20885;DHT22;10602;48.000;9.654;2022-11-23T03:06:40;3.50;99.90
20885;DHT22;10602;48.000;9.654;2022-11-23T03:09:07;3.50;99.90
20885;DHT22;10602;48.000;9.654;2022-11-23T03:11:35;3.40;99.90
20885;DHT22;10602;48.000;9.654;2022-11-23T03:14:03;3.40;99.90
20885;DHT22;10602;48.000;9.654;2022-11-23T03:16:30;3.40;99.90
20885;DHT22;10602;48.000;9.654;2022-11-23T03:18:59;3.30;99.90
20885;DHT22;10602;48.000;9.654;2022-11-23T03:21:26;3.30;99.90
20885;DHT22;10602;48.000;9.654;2022-11-23T03:23:54;3.30;99.90
20885;DHT22;10602;48.000;9.654;2022-11-23T03:26:22;3.30;99.90
20885;DHT22;10602;48.000;9.654;2022-11-23T03:28:49;3.30;99.90
20885;DHT22;10602;48.000;9.654;2022-11-23T03:31:17;3.20;99.90
20885;DHT22;10602;48.000;9.654;2022-11-23T03:33:45;3.20;99.90
20885;DHT22;10602;48.000;9.654;2022-11-23T03:36:12;3.20;99.90
20885;DHT22;10602;48.000;9.654;2022-11-23T03:38:39;3.20;99.90
20885;DHT22;10602;48.000;9.654;2022-11-23T03:41:07;3.10;99.90
20885;DHT22;10602;48.000;9.654;2022-11-23T03:43:34;3.10;99.90
20885;DHT22;10602;48.000;9.654;2022-11-23T03:46:02;3.10;99.90
20885;DHT22;10602;48.000;9.654;2022-11-23T03:48:29;3.00;99.90
20885;DHT22;10602;48.000;9.654;2022-11-23T03:50:57;3.00;99.90
20885;DHT22;10602;48.000;9.654;2022-11-23T03:53:24;3.00;99.90
20885;DHT22;10602;48.000;9.654;2022-11-23T03:55:52;3.00;99.90
20885;DHT22;10602;48.000;9.654;2022-11-23T03:58:21;3.00;99.90
20885;DHT22;10602;48.000;9.654;2022-11-23T04:00:49;3.10;99.90
20885;DHT22;10602;48.000;9.654;2022-11-23T04:03:16;3.10;99.90
20885;DHT22;10602;48.000;9.654;2022-11-23T04:05:44;3.10;99.90
20885;DHT22;10602;48.000;9.654;2022-11-23T04:08:11;3.10;99.90
20885;DHT22;10602;48.000;9.654;2022-11-23T04:10:39;3.10;99.90
20885;DHT22;10602;48.000;9.654;2022-11-23T04:13:06;3.10;99.90
20885;DHT22;10602;48.000;9.654;2022-11-23T04:15:34;3.20;99.90
20885;DHT22;10602;48.000;9.654;2022-11-23T04:18:01;3.20;99.90
20885;DHT22;10602;48.000;9.654;2022-11-23T04:20:29;3.20;99.90
20885;DHT22;10602;48.000;9.654;2022-11-23T04:22:56;3.20;99.90
20885;DHT22;10602;48.000;9.654;2022-11-23T04:25:24;3.30;99.90
20885;DHT22;10602;48.000;9.654;2022-11-23T04:27:51;3.30;99.90
20885;DHT22;10602;48.000;9.654;2022-11-23T04:30:19;3.30;99.90
20885;DHT22;10602;48.000;9.654;2022-11-23T04:32:46;3.30;99.90
20885;DHT22;10602;48.000;9.654;2022-11-23T04:35:14;3.30;99.90
20885;DHT22;10602;48.000;9.654;2022-11-23T04:37:41;3.40;99.90
20885;DHT22;10602;48.000;9.654;2022-11-23T04:40:09;3.30;99.90
20885;DHT22;10602;48.000;9.654;2022-11-23T04:42:37;3.40;99.90
20885;DHT22;10602;48.000;9.654;2022-11-23T04:45:04;3.40;99.90
20885;DHT22;10602;48.000;9.654;2022-11-23T04:47:32;3.40;99.90
20885;DHT22;10602;48.000;9.654;2022-11-23T04:50:00;3.40;99.90
20885;DHT22;10602;48.000;9.654;2022-11-23T04:52:27;3.40;99.90
20885;DHT22;10602;48.000;9.654;2022-11-23T04:54:55;3.40;99.90
20885;DHT22;10602;48.000;9.654;2022-11-23T04:57:22;3.40;99.90
20885;DHT22;10602;48.000;9.654;2022-11-23T04:59:50;3.40;99.90
20885;DHT22;10602;48.000;9.654;2022-11-23T05:02:17;3.50;99.90
20885;DHT22;10602;48.000;9.654;2022-11-23T05:04:45;3.50;99.90
20885;DHT22;10602;48.000;9.654;2022-11-23T05:07:12;3.50;99.90
20885;DHT22;10602;48.000;9.654;2022-11-23T05:09:40;3.50;99.90
20885;DHT22;10602;48.000;9.654;2022-11-23T05:12:07;3.50;99.90
20885;DHT22;10602;48.000;9.654;2022-11-23T05:14:35;3.50;99.90
20885;DHT22;10602;48.000;9.654;2022-11-23T05:17:02;3.60;99.90
20885;DHT22;10602;48.000;9.654;2022-11-23T05:19:30;3.60;99.90
20885;DHT22;10602;48.000;9.654;2022-11-23T05:21:57;3.60;99.90
20885;DHT22;10602;48.000;9.654;2022-11-23T05:24:25;3.60;99.90
20885;DHT22;10602;48.000;9.654;2022-11-23T05:26:52;3.60;99.90
20885;DHT22;10602;48.000;9.654;2022-11-23T05:29:20;3.60;99.90
20885;DHT22;10602;48.000;9.654;2022-11-23T05:31:47;3.60;99.90
20885;DHT22;10602;48.000;9.654;2022-11-23T05:34:15;3.60;99.90
20885;DHT22;10602;48.000;9.654;2022-11-23T05:36:43;3.60;99.90
20885;DHT22;10602;48.000;9.654;2022-11-23T05:39:10;3.60;99.90
20885;DHT22;10602;48.000;9.654;2022-11-23T05:41:38;3.60;99.90
20885;DHT22;10602;48.000;9.654;2022-11-23T05:44:05;3.50;99.90
20885;DHT22;10602;48.000;9.654;2022-11-23T05:46:33;3.50;99.90
20885;DHT22;10602;48.000;9.654;2022-11-23T05:49:00;3.50;99.90
20885;DHT22;10602;48.000;9.654;2022-11-23T05:51:28;3.40;99.90
20885;DHT22;10602;48.000;9.654;2022-11-23T05:59:07;3.30;99.90
20885;DHT22;10602;48.000;9.654;2022-11-23T06:01:34;3.30;99.90
20885;DHT22;10602;48.000;9.654;2022-11-23T06:04:02;3.30;99.90
20885;DHT22;10602;48.000;9.654;2022-11-23T06:06:31;3.20;99.90
20885;DHT22;10602;48.000;9.654;2022-11-23T06:08:59;3.20;99.90
20885;DHT22;10602;48.000;9.654;2022-11-23T06:11:26;3.10;99.90
20885;DHT22;10602;48.000;9.654;2022-11-23T06:13:54;3.00;99.90
20885;DHT22;10602;48.000;9.654;2022-11-23T06:16:21;2.90;99.90
20885;DHT22;10602;48.000;9.654;2022-11-23T06:18:49;2.80;99.90
20885;DHT22;10602;48.000;9.654;2022-11-23T06:21:16;2.70;99.90
20885;DHT22;10602;48.000;9.654;2022-11-23T06:23:46;2.60;99.90
20885;DHT22;10602;48.000;9.654;2022-11-23T06:26:14;2.60;99.90
20885;DHT22;10602;48.000;9.654;2022-11-23T06:28:41;2.50;99.90
20885;DHT22;10602;48.000;9.654;2022-11-23T06:31:09;2.40;99.90
20885;DHT22;10602;48.000;9.654;2022-11-23T06:33:37;2.30;99.90
20885;DHT22;10602;48.000;9.654;2022-11-23T06:36:05;2.30;99.90
20885;DHT22;10602;48.000;9.654;2022-11-23T06:38:33;2.20;99.90
20885;DHT22;10602;48.000;9.654;2022-11-23T06:41:01;2.20;99.90
20885;DHT22;10602;48.000;9.654;2022-11-23T06:43:28;2.10;99.90
20885;DHT22;10602;48.000;9.654;2022-11-23T06:45:56;2.10;99.90
20885;DHT22;10602;48.000;9.654;2022-11-23T06:48:24;2.10;99.90
20885;DHT22;10602;48.000;9.654;2022-11-23T06:50:51;2.00;99.90
20885;DHT22;10602;48.000;9.654;2022-11-23T06:53:20;2.00;99.90
20885;DHT22;10602;48.000;9.654;2022-11-23T06:55:47;2.00;99.90
20885;DHT22;10602;48.000;9.654;2022-11-23T06:58:15;1.90;99.90
20885;DHT22;10602;48.000;9.654;2022-11-23T07:00:42;1.90;99.90
20885;DHT22;10602;48.000;9.654;2022-11-23T07:03:20;1.80;99.90
20885;DHT22;10602;48.000;9.654;2022-11-23T07:05:49;1.80;99.90
20885;DHT22;10602;48.000;9.654;2022-11-23T07:08:16;1.80;99.90
20885;DHT22;10602;48.000;9.654;2022-11-23T07:10:44;1.80;99.90
20885;DHT22;10602;48.000;9.654;2022-11-23T07:13:12;1.80;99.90
20885;DHT22;10602;48.000;9.654;2022-11-23T07:15:40;1.90;99.90
20885;DHT22;10602;48.000;9.654;2022-11-23T07:18:09;2.50;99.90
20885;DHT22;10602;48.000;9.654;2022-11-23T07:20:38;3.50;99.90
20885;DHT22;10602;48.000;9.654;2022-11-23T07:23:10;4.60;99.90
20885;DHT22;10602;48.000;9.654;2022-11-23T07:25:38;5.50;99.90
20885;DHT22;10602;48.000;9.654;2022-11-23T07:28:06;6.20;99.90
20885;DHT22;10602;48.000;9.654;2022-11-23T07:30:34;6.90;99.90
20885;DHT22;10602;48.000;9.654;2022-11-23T07:33:05;7.60;99.90
20885;DHT22;10602;48.000;9.654;2022-11-23T07:35:34;8.20;99.90
20885;DHT22;10602;48.000;9.654;2022-11-23T07:38:03;8.20;99.90
20885;DHT22;10602;48.000;9.654;2022-11-23T07:40:34;8.00;99.90
20885;DHT22;10602;48.000;9.654;2022-11-23T07:43:03;8.20;99.90
20885;DHT22;10602;48.000;9.654;2022-11-23T07:45:31;8.80;99.90
20885;DHT22;10602;48.000;9.654;2022-11-23T07:48:05;9.40;99.90
20885;DHT22;10602;48.000;9.654;2022-11-23T07:50:34;10.00;99.90
20885;DHT22;10602;48.000;9.654;2022-11-23T07:53:03;10.90;99.90
20885;DHT22;10602;48.000;9.654;2022-11-23T07:55:31;11.50;99.90
20885;DHT22;10602;48.000;9.654;2022-11-23T07:57:59;12.20;99.00
20885;DHT22;10602;48.000;9.654;2022-11-23T08:00:27;12.70;96.90
20885;DHT22;10602;48.000;9.654;2022-11-23T08:02:57;13.30;94.40
20885;DHT22;10602;48.000;9.654;2022-11-23T08:05:24;13.90;92.30
20885;DHT22;10602;48.000;9.654;2022-11-23T08:07:57;14.30;91.10
20885;DHT22;10602;48.000;9.654;2022-11-23T08:10:26;14.80;87.50
20885;DHT22;10602;48.000;9.654;2022-11-23T08:12:59;15.10;85.00
20885;DHT22;10602;48.000;9.654;2022-11-23T08:15:27;15.40;81.70
20885;DHT22;10602;48.000;9.654;2022-11-23T08:17:56;16.10;78.80
20885;DHT22;10602;48.000;9.654;2022-11-23T08:20:24;16.50;75.90
20885;DHT22;10602;48.000;9.654;2022-11-23T08:22:52;16.70;73.30
20885;DHT22;10602;48.000;9.654;2022-11-23T08:25:24;16.70;69.20
20885;DHT22;10602;48.000;9.654;2022-11-23T08:27:56;16.50;70.20
20885;DHT22;10602;48.000;9.654;2022-11-23T08:30:25;16.60;69.40
20885;DHT22;10602;48.000;9.654;2022-11-23T08:35:26;16.50;66.70
20885;DHT22;10602;48.000;9.654;2022-11-23T08:37:54;16.60;67.00
20885;DHT22;10602;48.000;9.654;2022-11-23T08:40:23;17.00;65.80
20885;DHT22;10602;48.000;9.654;2022-11-23T08:42:52;16.70;62.90
20885;DHT22;10602;48.000;9.654;2022-11-23T08:45:21;16.80;63.20
20885;DHT22;10602;48.000;9.654;2022-11-23T08:47:48;16.20;63.50
20885;DHT22;10602;48.000;9.654;2022-11-23T08:50:16;16.40;65.60
20885;DHT22;10602;48.000;9.654;2022-11-23T08:52:44;16.60;64.20
20885;DHT22;10602;48.000;9.654;2022-11-23T08:55:12;16.60;62.20
20885;DHT22;10602;48.000;9.654;2022-11-23T08:57:41;16.30;60.70
20885;DHT22;10602;48.000;9.654;2022-11-23T09:00:10;16.30;60.90
20885;DHT22;10602;48.000;9.654;2022-11-23T09:07:50;17.00;59.30
20885;DHT22;10602;48.000;9.654;2022-11-23T09:10:18;16.00;59.60
20885;DHT22;10602;48.000;9.654;2022-11-23T09:12:47;15.70;61.30
20885;DHT22;10602;48.000;9.654;2022-11-23T09:15:15;15.60;61.60
20885;DHT22;10602;48.000;9.654;2022-11-23T09:17:44;15.90;61.90
20885;DHT22;10602;48.000;9.654;2022-11-23T09:20:12;15.60;61.30
20885;DHT22;10602;48.000;9.654;2022-11-23T09:22:39;15.60;63.90
20885;DHT22;10602;48.000;9.654;2022-11-23T09:25:07;15.80;63.20
20885;DHT22;10602;48.000;9.654;2022-11-23T09:27:35;15.90;61.00
20885;DHT22;10602;48.000;9.654;2022-11-23T09:30:05;14.80;61.70
20885;DHT22;10602;48.000;9.654;2022-11-23T09:32:33;14.00;63.40
20885;DHT22;10602;48.000;9.654;2022-11-23T09:35:00;14.20;64.10
20885;DHT22;10602;48.000;9.654;2022-11-23T09:37:28;15.00;64.10
20885;DHT22;10602;48.000;9.654;2022-11-23T09:39:55;15.80;61.70
20885;DHT22;10602;48.000;9.654;2022-11-23T09:50:52;15.30;61.70
20885;DHT22;10602;48.000;9.654;2022-11-23T09:53:36;14.80;59.90
20885;DHT22;10602;48.000;9.654;2022-11-23T09:56:03;15.20;62.00
20885;DHT22;10602;48.000;9.654;2022-11-23T09:58:35;15.60;61.40
20885;DHT22;10602;48.000;9.654;2022-11-23T10:01:09;15.90;59.50
20885;DHT22;10602;48.000;9.654;2022-11-23T10:03:37;16.20;57.70
20885;DHT22;10602;48.000;9.654;2022-11-23T10:16:49;16.10;56.20
20885;DHT22;10602;48.000;9.654;2022-11-23T10:22:26;16.50;56.80
20885;DHT22;10602;48.000;9.654;2022-11-23T10:24:57;16.00;56.10
20885;DHT22;10602;48.000;9.654;2022-11-23T10:27:28;16.60;56.70
20885;DHT22;10602;48.000;9.654;2022-11-23T10:29:57;15.90;56.70
20885;DHT22;10602;48.000;9.654;2022-11-23T10:35:26;16.30;55.80
20885;DHT22;10602;48.000;9.654;2022-11-23T10:38:04;17.40;54.50
20885;DHT22;10602;48.000;9.654;2022-11-23T10:40:29;17.80;51.30
20885;DHT22;10602;48.000;9.654;2022-11-23T10:43:27;17.90;51.10
20885;DHT22;10602;48.000;9.654;2022-11-23T10:48:48;17.80;49.50
20885;DHT22;10602;48.000;9.654;2022-11-23T10:51:25;16.60;48.60
20885;DHT22;10602;48.000;9.654;2022-11-23T10:53:57;16.30;49.70
20885;DHT22;10602;48.000;9.654;2022-11-23T10:56:25;16.00;51.90
20885;DHT22;10602;48.000;9.654;2022-11-23T10:58:55;16.90;51.10
20885;DHT22;10602;48.000;9.654;2022-11-23T13:52:34;15.80;43.90
20885;DHT22;10602;48.000;9.654;2022-11-23T13:57:45;15.70;43.20
20885;DHT22;10602;48.000;9.654;2022-11-23T14:03:55;15.60;44.20
20885;DHT22;10602;48.000;9.654;2022-11-23T14:11:55;15.80;42.40
20885;DHT22;10602;48.000;9.654;2022-11-23T14:20:23;14.80;43.70
20885;DHT22;10602;48.000;9.654;2022-11-23T14:34:22;15.10;45.50
20885;DHT22;10602;48.000;9.654;2022-11-23T14:42:36;15.30;44.20
20885;DHT22;10602;48.000;9.654;2022-11-23T14:45:18;14.30;46.20
20885;DHT22;10602;48.000;9.654;2022-11-23T14:47:44;14.10;46.60
20885;DHT22;10602;48.000;9.654;2022-11-23T14:50:29;14.10;48.40
20885;DHT22;10602;48.000;9.654;2022-11-23T14:52:58;14.20;47.70
20885;DHT22;10602;48.000;9.654;2022-11-23T14:55:28;13.70;47.30
20885;DHT22;10602;48.000;9.654;2022-11-23T14:58:11;13.60;48.30
20885;DHT22;10602;48.000;9.654;2022-11-23T15:00:38;13.40;47.70
20885;DHT22;10602;48.000;9.654;2022-11-23T15:03:18;12.90;48.40
20885;DHT22;10602;48.000;9.654;2022-11-23T15:05:54;12.00;50.20
20885;DHT22;10602;48.000;9.654;2022-11-23T15:08:42;11.40;51.60
20885;DHT22;10602;48.000;9.654;2022-11-23T15:13:51;10.20;54.70
20885;DHT22;10602;48.000;9.654;2022-11-23T15:16:31;9.90;60.00
20885;DHT22;10602;48.000;9.654;2022-11-23T15:18:58;9.50;60.00
20885;DHT22;10602;48.000;9.654;2022-11-23T15:21:27;9.10;59.80
20885;DHT22;10602;48.000;9.654;2022-11-23T15:24:17;8.90;60.50
20885;DHT22;10602;48.000;9.654;2022-11-23T15:26:34;8.40;62.20
20885;DHT22;10602;48.000;9.654;2022-11-23T15:29:26;8.10;64.90
20885;DHT22;10602;48.000;9.654;2022-11-23T15:31:36;7.90;71.40
20885;DHT22;10602;48.000;9.654;2022-11-23T15:34:13;7.70;79.10
20885;DHT22;10602;48.000;9.654;2022-11-23T15:36:46;7.60;82.40
20885;DHT22;10602;48.000;9.654;2022-11-23T15:39:22;7.40;87.70
20885;DHT22;10602;48.000;9.654;2022-11-23T15:41:52;7.30;87.70
20885;DHT22;10602;48.000;9.654;2022-11-23T15:47:09;7.20;91.60
20885;DHT22;10602;48.000;9.654;2022-11-23T15:49:39;7.20;94.40
20885;DHT22;10602;48.000;9.654;2022-11-23T15:52:23;7.20;95.90
20885;DHT22;10602;48.000;9.654;2022-11-23T15:54:53;7.20;95.80
20885;DHT22;10602;48.000;9.654;2022-11-23T15:57:25;7.10;95.20
20885;DHT22;10602;48.000;9.654;2022-11-23T15:59:59;7.10;94.40
20885;DHT22;10602;48.000;9.654;2022-11-23T16:02:31;7.00;94.30
20885;DHT22;10602;48.000;9.654;2022-11-23T16:07:55;6.90;95.00
20885;DHT22;10602;48.000;9.654;2022-11-23T16:10:30;6.80;95.40
20885;DHT22;10602;48.000;9.654;2022-11-23T16:13:03;6.70;95.90
20885;DHT22;10602;48.000;9.654;2022-11-23T16:15:39;6.70;96.20
20885;DHT22;10602;48.000;9.654;2022-11-23T16:18:23;6.70;96.40
20885;DHT22;10602;48.000;9.654;2022-11-23T16:20:58;6.70;96.50
20885;DHT22;10602;48.000;9.654;2022-11-23T16:23:53;6.70;97.00
20885;DHT22;10602;48.000;9.654;2022-11-23T16:26:33;6.50;98.50
20885;DHT22;10602;48.000;9.654;2022-11-23T16:29:01;6.40;99.80
20885;DHT22;10602;48.000;9.654;2022-11-23T16:31:50;6.50;99.90
20885;DHT22;10602;48.000;9.654;2022-11-23T16:34:15;6.50;99.90
20885;DHT22;10602;48.000;9.654;2022-11-23T16:36:44;6.40;99.90
20885;DHT22;10602;48.000;9.654;2022-11-23T16:39:15;6.40;99.90
20885;DHT22;10602;48.000;9.654;2022-11-23T16:41:46;6.40;99.90
20885;DHT22;10602;48.000;9.654;2022-11-23T16:44:16;6.40;99.90
20885;DHT22;10602;48.000;9.654;2022-11-23T16:46:48;6.40;99.90
20885;DHT22;10602;48.000;9.654;2022-11-23T16:49:26;6.40;99.90
20885;DHT22;10602;48.000;9.654;2022-11-23T16:51:57;6.40;99.90
20885;DHT22;10602;48.000;9.654;2022-11-23T16:54:25;6.40;99.90
20885;DHT22;10602;48.000;9.654;2022-11-23T16:56:56;6.40;99.90
20885;DHT22;10602;48.000;9.654;2022-11-23T16:59:30;6.40;99.90
20885;DHT22;10602;48.000;9.654;2022-11-23T17:02:01;6.30;99.90
20885;DHT22;10602;48.000;9.654;2022-11-23T17:04:30;6.20;99.90
20885;DHT22;10602;48.000;9.654;2022-11-23T17:07:04;6.30;99.90
20885;DHT22;10602;48.000;9.654;2022-11-23T17:09:31;6.30;99.90
20885;DHT22;10602;48.000;9.654;2022-11-23T17:12:00;6.30;99.90
20885;DHT22;10602;48.000;9.654;2022-11-23T17:14:30;6.30;99.90
20885;DHT22;10602;48.000;9.654;2022-11-23T17:17:02;6.30;99.90
20885;DHT22;10602;48.000;9.654;2022-11-23T17:19:43;6.20;99.90
20885;DHT22;10602;48.000;9.654;2022-11-23T17:22:16;6.20;99.90
20885;DHT22;10602;48.000;9.654;2022-11-23T17:24:48;6.20;99.90
20885;DHT22;10602;48.000;9.654;2022-11-23T17:27:28;6.20;99.90
20885;DHT22;10602;48.000;9.654;2022-11-23T17:30:06;6.10;99.90
20885;DHT22;10602;48.000;9.654;2022-11-23T17:32:43;6.30;99.90
20885;DHT22;10602;48.000;9.654;2022-11-23T17:35:17;6.40;99.40
20885;DHT22;10602;48.000;9.654;2022-11-23T17:37:46;6.60;98.50
20885;DHT22;10602;48.000;9.654;2022-11-23T17:43:14;6.60;99.90
20885;DHT22;10602;48.000;9.654;2022-11-23T17:45:43;6.10;99.90
20885;DHT22;10602;48.000;9.654;2022-11-23T17:48:13;5.70;99.90
20885;DHT22;10602;48.000;9.654;2022-11-23T17:50:42;5.30;99.90
20885;DHT22;10602;48.000;9.654;2022-11-23T18:01:27;4.60;99.90
20885;DHT22;10602;48.000;9.654;2022-11-23T18:04:05;4.50;99.90
20885;DHT22;10602;48.000;9.654;2022-11-23T18:06:35;4.40;99.90
20885;DHT22;10602;48.000;9.654;2022-11-23T18:09:05;4.40;99.90
20885;DHT22;10602;48.000;9.654;2022-11-23T18:11:43;4.40;99.90
20885;DHT22;10602;48.000;9.654;2022-11-23T18:14:12;4.40;99.90
20885;DHT22;10602;48.000;9.654;2022-11-23T18:16:41;4.30;99.90
20885;DHT22;10602;48.000;9.654;2022-11-23T18:19:22;4.30;99.90
20885;DHT22;10602;48.000;9.654;2022-11-23T18:21:52;4.30;99.90
20885;DHT22;10602;48.000;9.654;2022-11-23T18:24:16;4.40;99.90
20885;DHT22;10602;48.000;9.654;2022-11-23T18:26:45;4.30;99.90
20885;DHT22;10602;48.000;9.654;2022-11-23T18:29:16;4.40;99.90
20885;DHT22;10602;48.000;9.654;2022-11-23T18:31:50;4.40;99.90
20885;DHT22;10602;48.000;9.654;2022-11-23T18:34:20;4.40;99.90
20885;DHT22;10602;48.000;9.654;2022-11-23T18:36:52;4.30;99.90
20885;DHT22;10602;48.000;9.654;2022-11-23T18:39:23;4.40;99.90
20885;DHT22;10602;48.000;9.654;2022-11-23T18:41:52;4.40;99.90
20885;DHT22;10602;48.000;9.654;2022-11-23T18:44:27;4.40;99.90
20885;DHT22;10602;48.000;9.654;2022-11-23T18:46:57;4.40;99.90
20885;DHT22;10602;48.000;9.654;2022-11-23T18:49:26;4.40;99.90
20885;DHT22;10602;48.000;9.654;2022-11-23T18:51:58;4.40;99.90
20885;DHT22;10602;48.000;9.654;2022-11-23T18:54:27;4.40;99.90
20885;DHT22;10602;48.000;9.654;2022-11-23T18:56:56;4.40;99.90
20885;DHT22;10602;48.000;9.654;2022-11-23T18:59:27;4.40;99.90
20885;DHT22;10602;48.000;9.654;2022-11-23T19:01:58;4.40;99.90
20885;DHT22;10602;48.000;9.654;2022-11-23T19:04:32;4.40;99.90
20885;DHT22;10602;48.000;9.654;2022-11-23T19:07:08;4.40;99.90
20885;DHT22;10602;48.000;9.654;2022-11-23T19:09:43;4.40;99.90
20885;DHT22;10602;48.000;9.654;2022-11-23T19:12:10;4.40;99.90
20885;DHT22;10602;48.000;9.654;2022-11-23T19:14:44;4.40;99.90
20885;DHT22;10602;48.000;9.654;2022-11-23T19:19:55;4.40;99.90
20885;DHT22;10602;48.000;9.654;2022-11-23T19:22:25;4.40;99.90
20885;DHT22;10602;48.000;9.654;2022-11-23T19:25:00;4.40;99.90
20885;DHT22;10602;48.000;9.654;2022-11-23T19:27:34;4.40;99.90
20885;DHT22;10602;48.000;9.654;2022-11-23T19:30:04;4.40;99.90
20885;DHT22;10602;48.000;9.654;2022-11-23T19:32:35;4.50;99.90
20885;DHT22;10602;48.000;9.654;2022-11-23T19:35:04;4.50;99.90
20885;DHT22;10602;48.000;9.654;2022-11-23T19:37:36;4.50;99.90
20885;DHT22;10602;48.000;9.654;2022-11-23T19:40:05;4.50;99.90
20885;DHT22;10602;48.000;9.654;2022-11-23T19:42:35;4.50;99.90
20885;DHT22;10602;48.000;9.654;2022-11-23T19:45:21;4.50;99.90
20885;DHT22;10602;48.000;9.654;2022-11-23T19:47:50;4.50;99.90
20885;DHT22;10602;48.000;9.654;2022-11-23T19:50:19;4.50;99.90
20885;DHT22;10602;48.000;9.654;2022-11-23T19:52:48;4.50;99.90
20885;DHT22;10602;48.000;9.654;2022-11-23T19:55:18;4.50;99.90
20885;DHT22;10602;48.000;9.654;2022-11-23T19:57:46;4.50;99.90
20885;DHT22;10602;48.000;9.654;2022-11-23T20:00:19;4.50;99.90
20885;DHT22;10602;48.000;9.654;2022-11-23T20:02:46;4.50;99.90
20885;DHT22;10602;48.000;9.654;2022-11-23T20:05:14;4.50;99.90
20885;DHT22;10602;48.000;9.654;2022-11-23T20:07:45;4.60;99.90
20885;DHT22;10602;48.000;9.654;2022-11-23T20:10:18;4.70;99.90
20885;DHT22;10602;48.000;9.654;2022-11-23T20:12:50;4.70;99.90
20885;DHT22;10602;48.000;9.654;2022-11-23T20:15:23;4.70;99.90
20885;DHT22;10602;48.000;9.654;2022-11-23T20:17:51;4.80;99.90
20885;DHT22;10602;48.000;9.654;2022-11-23T20:20:20;4.90;99.90
20885;DHT22;10602;48.000;9.654;2022-11-23T20:22:49;4.90;99.90
20885;DHT22;10602;48.000;9.654;2022-11-23T20:25:19;5.00;99.90
20885;DHT22;10602;48.000;9.654;2022-11-23T20:27:47;5.00;99.90
20885;DHT22;10602;48.000;9.654;2022-11-23T20:30:20;5.00;99.90
20885;DHT22;10602;48.000;9.654;2022-11-23T20:32:54;5.10;99.90
20885;DHT22;10602;48.000;9.654;2022-11-23T20:35:27;5.40;99.90